sensor_id;sensor_type;location;lat;lon;timestamp;pressure;altitude;pressure_sealevel;temperature;humidity
16120;BME280;12670;53.502;10.252;2023-02-17T00:02:33;101257.91;;;8.55;100.00
16120;BME280;12670;53.502;10.252;2023-02-17T00:05:38;101265.63;;;8.64;100.00
16120;BME280;12670;53.502;10.252;2023-02-17T00:08:40;101261.31;;;8.60;100.00
16120;BME280;12670;53.502;10.252;2023-02-17T00:11:44;101255.44;;;8.49;100.00
16120;BME280;12670;53.502;10.252;2023-02-17T00:14:47;101256.72;;;8.68;100.00
16120;BME280;12670;53.502;10.252;2023-02-17T00:17:50;101253.22;;;8.66;100.00
16120;BME280;12670;53.502;10.252;2023-02-17T00:20:52;101247.03;;;8.67;100.00
16120;BME280;12670;53.502;10.252;2023-02-17T00:23:56;101244.38;;;8.69;100.00
16120;BME280;12670;53.502;10.252;2023-02-17T00:27:00;101242.66;;;8.66;100.00
16120;BME280;12670;53.502;10.252;2023-02-17T00:30:03;101236.59;;;8.61;100.00
16120;BME280;12670;53.502;10.252;2023-02-17T00:33:06;101228.66;;;8.61;100.00
16120;BME280;12670;53.502;10.252;2023-02-17T00:36:11;101238.69;;;8.48;100.00
16120;BME280;12670;53.502;10.252;2023-02-17T00:39:15;101233.34;;;8.51;100.00
16120;BME280;12670;53.502;10.252;2023-02-17T00:42:19;101229.41;;;8.66;100.00
16120;BME280;12670;53.502;10.252;2023-02-17T00:45:22;101229.53;;;8.63;100.00
16120;BME280;12670;53.502;10.252;2023-02-17T00:48:24;101225.09;;;8.64;100.00
16120;BME280;12670;53.502;10.252;2023-02-17T00:51:27;101222.66;;;8.56;100.00
16120;BME280;12670;53.502;10.252;2023-02-17T00:54:30;101227.03;;;8.57;100.00
16120;BME280;12670;53.502;10.252;2023-02-17T00:57:34;101215.59;;;8.57;100.00
16120;BME280;12670;53.502;10.252;2023-02-17T01:00:36;101217.84;;;8.70;100.00
16120;BME280;12670;53.502;10.252;2023-02-17T01:03:39;101213.16;;;8.81;100.00
16120;BME280;12670;53.502;10.252;2023-02-17T01:06:42;101209.09;;;8.68;100.00
16120;BME280;12670;53.502;10.252;2023-02-17T01:09:45;101218.25;;;8.55;100.00
16120;BME280;12670;53.502;10.252;2023-02-17T01:12:49;101210.84;;;8.69;100.00
16120;BME280;12670;53.502;10.252;2023-02-17T01:15:52;101207.16;;;8.75;100.00
16120;BME280;12670;53.502;10.252;2023-02-17T01:18:55;101195.91;;;8.67;100.00
16120;BME280;12670;53.502;10.252;2023-02-17T01:21:57;101184.44;;;8.66;100.00
16120;BME280;12670;53.502;10.252;2023-02-17T01:25:00;101181.63;;;8.74;100.00
16120;BME280;12670;53.502;10.252;2023-02-17T01:28:05;101183.59;;;8.66;100.00
16120;BME280;12670;53.502;10.252;2023-02-17T01:31:09;101173.81;;;8.69;100.00
16120;BME280;12670;53.502;10.252;2023-02-17T01:34:12;101174.34;;;8.82;100.00
16120;BME280;12670;53.502;10.252;2023-02-17T01:37:14;101168.84;;;8.57;100.00
16120;BME280;12670;53.502;10.252;2023-02-17T01:40:17;101171.91;;;8.74;100.00
16120;BME280;12670;53.502;10.252;2023-02-17T01:43:21;101163.13;;;8.72;100.00
16120;BME280;12670;53.502;10.252;2023-02-17T01:46:24;101156.03;;;8.74;100.00
16120;BME280;12670;53.502;10.252;2023-02-17T01:49:30;101150.66;;;8.77;100.00
16120;BME280;12670;53.502;10.252;2023-02-17T01:52:34;101144.44;;;8.78;100.00
16120;BME280;12670;53.502;10.252;2023-02-17T01:55:37;101150.06;;;8.68;100.00
16120;BME280;12670;53.502;10.252;2023-02-17T01:58:49;101135.69;;;8.76;100.00
16120;BME280;12670;53.502;10.252;2023-02-17T02:01:55;101129.91;;;8.62;100.00
16120;BME280;12670;53.502;10.252;2023-02-17T02:05:00;101114.75;;;8.67;100.00
16120;BME280;12670;53.502;10.252;2023-02-17T02:08:04;101114.66;;;8.72;100.00
16120;BME280;12670;53.502;10.252;2023-02-17T02:11:10;101116.91;;;8.86;100.00
16120;BME280;12670;53.502;10.252;2023-02-17T02:14:14;101104.56;;;8.85;100.00
16120;BME280;12670;53.502;10.252;2023-02-17T02:17:27;101082.53;;;8.86;100.00
16120;BME280;12670;53.502;10.252;2023-02-17T02:20:46;101085.34;;;8.79;100.00
16120;BME280;12670;53.502;10.252;2023-02-17T02:24:15;101073.53;;;8.91;100.00
16120;BME280;12670;53.502;10.252;2023-02-17T02:27:33;101073.34;;;8.97;100.00
16120;BME280;12670;53.502;10.252;2023-02-17T02:30:51;101062.84;;;8.94;100.00
16120;BME280;12670;53.502;10.252;2023-02-17T02:34:03;101062.06;;;8.91;100.00
16120;BME280;12670;53.502;10.252;2023-02-17T02:37:12;101064.56;;;8.95;100.00
16120;BME280;12670;53.502;10.252;2023-02-17T02:40:16;101055.78;;;8.95;100.00
16120;BME280;12670;53.502;10.252;2023-02-17T02:43:22;101041.44;;;9.02;100.00
16120;BME280;12670;53.502;10.252;2023-02-17T02:46:25;101041.22;;;9.10;100.00
16120;BME280;12670;53.502;10.252;2023-02-17T02:49:30;101044.69;;;9.12;100.00
16120;BME280;12670;53.502;10.252;2023-02-17T02:52:43;101042.16;;;9.07;100.00
16120;BME280;12670;53.502;10.252;2023-02-17T02:55:52;101038.78;;;9.02;100.00
16120;BME280;12670;53.502;10.252;2023-02-17T02:59:04;101050.66;;;9.18;100.00
16120;BME280;12670;53.502;10.252;2023-02-17T03:02:17;101042.84;;;9.14;100.00
16120;BME280;12670;53.502;10.252;2023-02-17T03:05:31;101033.13;;;9.14;100.00
16120;BME280;12670;53.502;10.252;2023-02-17T03:08:42;101028.00;;;9.10;100.00
16120;BME280;12670;53.502;10.252;2023-02-17T03:11:47;101028.72;;;9.15;100.00
16120;BME280;12670;53.502;10.252;2023-02-17T03:14:53;101028.66;;;9.16;100.00
16120;BME280;12670;53.502;10.252;2023-02-17T03:17:57;101027.78;;;9.16;100.00
16120;BME280;12670;53.502;10.252;2023-02-17T03:21:05;101019.00;;;9.15;100.00
16120;BME280;12670;53.502;10.252;2023-02-17T03:24:11;101014.75;;;9.10;100.00
16120;BME280;12670;53.502;10.252;2023-02-17T03:27:13;101000.28;;;9.20;100.00
16120;BME280;12670;53.502;10.252;2023-02-17T03:30:16;101004.72;;;9.19;100.00
16120;BME280;12670;53.502;10.252;2023-02-17T03:33:19;100996.75;;;9.21;100.00
16120;BME280;12670;53.502;10.252;2023-02-17T03:36:23;100996.91;;;9.16;100.00
16120;BME280;12670;53.502;10.252;2023-02-17T03:39:25;100991.81;;;9.37;100.00
16120;BME280;12670;53.502;10.252;2023-02-17T03:42:28;100995.69;;;9.26;100.00
16120;BME280;12670;53.502;10.252;2023-02-17T03:45:31;100999.22;;;9.25;100.00
16120;BME280;12670;53.502;10.252;2023-02-17T03:48:34;100992.00;;;9.30;100.00
16120;BME280;12670;53.502;10.252;2023-02-17T03:51:38;101001.00;;;9.26;100.00
16120;BME280;12670;53.502;10.252;2023-02-17T03:54:40;100996.38;;;9.31;100.00
16120;BME280;12670;53.502;10.252;2023-02-17T03:57:43;100997.41;;;9.27;100.00
16120;BME280;12670;53.502;10.252;2023-02-17T04:00:45;100993.94;;;9.25;100.00
16120;BME280;12670;53.502;10.252;2023-02-17T04:03:48;100985.84;;;9.30;100.00
16120;BME280;12670;53.502;10.252;2023-02-17T04:06:53;100988.63;;;9.25;100.00
16120;BME280;12670;53.502;10.252;2023-02-17T04:09:55;100986.84;;;9.27;100.00
16120;BME280;12670;53.502;10.252;2023-02-17T04:12:58;100977.84;;;9.31;100.00
16120;BME280;12670;53.502;10.252;2023-02-17T04:16:01;100976.97;;;9.32;100.00
16120;BME280;12670;53.502;10.252;2023-02-17T04:19:05;100978.78;;;9.30;100.00
16120;BME280;12670;53.502;10.252;2023-02-17T04:22:09;100977.09;;;9.28;100.00
16120;BME280;12670;53.502;10.252;2023-02-17T04:25:12;100969.56;;;9.42;100.00
16120;BME280;12670;53.502;10.252;2023-02-17T04:28:16;100976.91;;;9.34;100.00
16120;BME280;12670;53.502;10.252;2023-02-17T04:31:18;100977.75;;;9.34;100.00
16120;BME280;12670;53.502;10.252;2023-02-17T04:34:21;100983.97;;;9.33;100.00
16120;BME280;12670;53.502;10.252;2023-02-17T04:37:25;100980.81;;;9.49;100.00
16120;BME280;12670;53.502;10.252;2023-02-17T04:40:28;100981.72;;;9.48;100.00
16120;BME280;12670;53.502;10.252;2023-02-17T04:43:31;100980.72;;;9.52;100.00
16120;BME280;12670;53.502;10.252;2023-02-17T04:46:34;100969.72;;;9.64;100.00
16120;BME280;12670;53.502;10.252;2023-02-17T04:49:36;100959.31;;;9.58;100.00
16120;BME280;12670;53.502;10.252;2023-02-17T04:52:40;100954.22;;;9.52;100.00
16120;BME280;12670;53.502;10.252;2023-02-17T04:55:43;100950.56;;;9.56;100.00
16120;BME280;12670;53.502;10.252;2023-02-17T04:58:48;100963.69;;;9.59;100.00
16120;BME280;12670;53.502;10.252;2023-02-17T05:01:51;100954.22;;;9.52;100.00
16120;BME280;12670;53.502;10.252;2023-02-17T05:04:54;100953.00;;;9.62;100.00
16120;BME280;12670;53.502;10.252;2023-02-17T05:07:58;100941.78;;;9.54;100.00
16120;BME280;12670;53.502;10.252;2023-02-17T05:11:00;100939.84;;;9.59;100.00
16120;BME280;12670;53.502;10.252;2023-02-17T05:14:03;100937.69;;;9.70;100.00
16120;BME280;12670;53.502;10.252;2023-02-17T05:17:05;100936.03;;;9.68;100.00
16120;BME280;12670;53.502;10.252;2023-02-17T05:20:09;100934.56;;;9.59;100.00
16120;BME280;12670;53.502;10.252;2023-02-17T05:23:13;100936.50;;;9.54;100.00
16120;BME280;12670;53.502;10.252;2023-02-17T05:26:15;100923.97;;;9.59;100.00
16120;BME280;12670;53.502;10.252;2023-02-17T05:29:18;100918.34;;;9.68;100.00
16120;BME280;12670;53.502;10.252;2023-02-17T05:32:21;100913.06;;;9.68;100.00
16120;BME280;12670;53.502;10.252;2023-02-17T05:35:24;100906.19;;;9.63;100.00
16120;BME280;12670;53.502;10.252;2023-02-17T05:38:28;100898.47;;;9.56;100.00
16120;BME280;12670;53.502;10.252;2023-02-17T05:41:30;100897.47;;;9.59;100.00
16120;BME280;12670;53.502;10.252;2023-02-17T05:44:33;100896.19;;;9.46;100.00
16120;BME280;12670;53.502;10.252;2023-02-17T05:47:36;100895.69;;;9.59;100.00
16120;BME280;12670;53.502;10.252;2023-02-17T05:50:38;100884.22;;;9.59;100.00
16120;BME280;12670;53.502;10.252;2023-02-17T05:53:42;100878.44;;;9.48;100.00
16120;BME280;12670;53.502;10.252;2023-02-17T05:56:45;100881.66;;;9.57;100.00
16120;BME280;12670;53.502;10.252;2023-02-17T05:59:48;100871.28;;;9.51;100.00
16120;BME280;12670;53.502;10.252;2023-02-17T06:02:51;100869.03;;;9.64;100.00
16120;BME280;12670;53.502;10.252;2023-02-17T06:05:53;100869.69;;;9.71;100.00
16120;BME280;12670;53.502;10.252;2023-02-17T06:08:57;100861.09;;;9.64;100.00
16120;BME280;12670;53.502;10.252;2023-02-17T06:12:00;100868.88;;;9.69;100.00
16120;BME280;12670;53.502;10.252;2023-02-17T06:15:03;100869.59;;;9.74;100.00
16120;BME280;12670;53.502;10.252;2023-02-17T06:18:06;100862.50;;;9.74;100.00
16120;BME280;12670;53.502;10.252;2023-02-17T06:21:08;100854.78;;;9.68;100.00
16120;BME280;12670;53.502;10.252;2023-02-17T06:24:12;100853.25;;;9.61;100.00
16120;BME280;12670;53.502;10.252;2023-02-17T06:27:15;100848.06;;;9.58;100.00
16120;BME280;12670;53.502;10.252;2023-02-17T06:30:17;100848.84;;;9.61;100.00
16120;BME280;12670;53.502;10.252;2023-02-17T06:33:21;100843.47;;;9.63;100.00
16120;BME280;12670;53.502;10.252;2023-02-17T06:36:24;100837.03;;;9.70;100.00
16120;BME280;12670;53.502;10.252;2023-02-17T06:39:28;100816.81;;;9.68;100.00
16120;BME280;12670;53.502;10.252;2023-02-17T06:42:31;100810.84;;;9.61;100.00
16120;BME280;12670;53.502;10.252;2023-02-17T06:45:33;100806.31;;;9.65;100.00
16120;BME280;12670;53.502;10.252;2023-02-17T06:48:36;100800.03;;;9.67;100.00
16120;BME280;12670;53.502;10.252;2023-02-17T06:51:38;100785.31;;;9.60;100.00
16120;BME280;12670;53.502;10.252;2023-02-17T06:54:42;100790.19;;;9.71;100.00
16120;BME280;12670;53.502;10.252;2023-02-17T06:57:47;100787.94;;;9.60;100.00
16120;BME280;12670;53.502;10.252;2023-02-17T07:00:50;100783.56;;;9.59;100.00
16120;BME280;12670;53.502;10.252;2023-02-17T07:03:53;100781.50;;;9.67;100.00
16120;BME280;12670;53.502;10.252;2023-02-17T07:06:56;100782.38;;;9.68;100.00
16120;BME280;12670;53.502;10.252;2023-02-17T07:10:00;100779.75;;;9.68;100.00
16120;BME280;12670;53.502;10.252;2023-02-17T07:13:03;100770.47;;;9.56;100.00
16120;BME280;12670;53.502;10.252;2023-02-17T07:16:06;100767.13;;;9.74;100.00
16120;BME280;12670;53.502;10.252;2023-02-17T07:19:10;100762.75;;;9.73;100.00
16120;BME280;12670;53.502;10.252;2023-02-17T07:22:12;100761.22;;;9.66;100.00
16120;BME280;12670;53.502;10.252;2023-02-17T07:25:16;100752.81;;;9.55;100.00
16120;BME280;12670;53.502;10.252;2023-02-17T07:28:19;100764.72;;;9.68;100.00
16120;BME280;12670;53.502;10.252;2023-02-17T07:31:22;100750.31;;;9.75;100.00
16120;BME280;12670;53.502;10.252;2023-02-17T07:34:24;100756.75;;;9.68;100.00
16120;BME280;12670;53.502;10.252;2023-02-17T07:37:27;100755.94;;;9.66;100.00
16120;BME280;12670;53.502;10.252;2023-02-17T07:40:31;100751.41;;;9.70;100.00
16120;BME280;12670;53.502;10.252;2023-02-17T07:43:34;100756.69;;;9.70;100.00
16120;BME280;12670;53.502;10.252;2023-02-17T07:46:36;100744.59;;;9.63;100.00
16120;BME280;12670;53.502;10.252;2023-02-17T07:49:40;100744.31;;;9.70;100.00
16120;BME280;12670;53.502;10.252;2023-02-17T07:52:42;100737.34;;;9.68;100.00
16120;BME280;12670;53.502;10.252;2023-02-17T07:55:46;100731.84;;;9.72;100.00
16120;BME280;12670;53.502;10.252;2023-02-17T07:58:49;100728.34;;;9.72;100.00
16120;BME280;12670;53.502;10.252;2023-02-17T08:01:52;100736.34;;;9.70;100.00
16120;BME280;12670;53.502;10.252;2023-02-17T08:04:54;100721.84;;;9.80;100.00
16120;BME280;12670;53.502;10.252;2023-02-17T08:07:57;100729.09;;;9.75;100.00
16120;BME280;12670;53.502;10.252;2023-02-17T08:11:19;100730.13;;;9.71;100.00
16120;BME280;12670;53.502;10.252;2023-02-17T08:14:39;100711.72;;;9.68;100.00
16120;BME280;12670;53.502;10.252;2023-02-17T08:17:42;100692.34;;;9.66;100.00
16120;BME280;12670;53.502;10.252;2023-02-17T08:20:45;100685.97;;;9.72;100.00
16120;BME280;12670;53.502;10.252;2023-02-17T08:23:47;100697.56;;;9.69;100.00
16120;BME280;12670;53.502;10.252;2023-02-17T08:26:51;100681.41;;;9.75;100.00
16120;BME280;12670;53.502;10.252;2023-02-17T08:29:54;100669.97;;;9.75;100.00
16120;BME280;12670;53.502;10.252;2023-02-17T08:32:57;100670.56;;;9.81;100.00
16120;BME280;12670;53.502;10.252;2023-02-17T08:36:04;100659.44;;;9.73;100.00
16120;BME280;12670;53.502;10.252;2023-02-17T08:39:10;100660.31;;;9.72;100.00
16120;BME280;12670;53.502;10.252;2023-02-17T08:42:15;100656.72;;;9.75;100.00
16120;BME280;12670;53.502;10.252;2023-02-17T08:45:18;100644.41;;;9.74;100.00
16120;BME280;12670;53.502;10.252;2023-02-17T08:48:20;100647.91;;;9.74;100.00
16120;BME280;12670;53.502;10.252;2023-02-17T08:51:24;100639.13;;;9.72;100.00
16120;BME280;12670;53.502;10.252;2023-02-17T08:54:26;100645.38;;;9.71;100.00
16120;BME280;12670;53.502;10.252;2023-02-17T08:57:30;100639.28;;;9.69;100.00
16120;BME280;12670;53.502;10.252;2023-02-17T09:00:33;100635.69;;;9.70;100.00
16120;BME280;12670;53.502;10.252;2023-02-17T09:03:37;100651.28;;;9.78;100.00
16120;BME280;12670;53.502;10.252;2023-02-17T09:06:42;100658.25;;;9.80;100.00
16120;BME280;12670;53.502;10.252;2023-02-17T09:09:45;100648.53;;;9.81;100.00
16120;BME280;12670;53.502;10.252;2023-02-17T09:12:49;100668.03;;;9.78;100.00
16120;BME280;12670;53.502;10.252;2023-02-17T09:15:52;100661.69;;;9.82;100.00
16120;BME280;12670;53.502;10.252;2023-02-17T09:18:55;100649.91;;;9.89;100.00
16120;BME280;12670;53.502;10.252;2023-02-17T09:21:58;100654.69;;;9.81;100.00
16120;BME280;12670;53.502;10.252;2023-02-17T09:25:01;100624.00;;;9.76;100.00
16120;BME280;12670;53.502;10.252;2023-02-17T09:28:05;100630.91;;;9.80;100.00
16120;BME280;12670;53.502;10.252;2023-02-17T09:31:09;100625.63;;;9.78;100.00
16120;BME280;12670;53.502;10.252;2023-02-17T09:34:13;100611.44;;;9.81;100.00
16120;BME280;12670;53.502;10.252;2023-02-17T09:37:16;100606.19;;;9.79;100.00
16120;BME280;12670;53.502;10.252;2023-02-17T09:40:22;100597.44;;;9.77;100.00
16120;BME280;12670;53.502;10.252;2023-02-17T09:43:27;100614.16;;;9.79;100.00
16120;BME280;12670;53.502;10.252;2023-02-17T09:46:34;100597.31;;;9.80;100.00
16120;BME280;12670;53.502;10.252;2023-02-17T09:49:41;100590.84;;;9.87;100.00
16120;BME280;12670;53.502;10.252;2023-02-17T09:52:50;100566.84;;;9.91;100.00
16120;BME280;12670;53.502;10.252;2023-02-17T09:55:58;100573.28;;;9.85;100.00
16120;BME280;12670;53.502;10.252;2023-02-17T09:59:10;100591.59;;;9.91;100.00
16120;BME280;12670;53.502;10.252;2023-02-17T10:02:18;100589.78;;;9.92;100.00
16120;BME280;12670;53.502;10.252;2023-02-17T10:05:28;100574.88;;;9.89;100.00
16120;BME280;12670;53.502;10.252;2023-02-17T10:08:34;100581.84;;;9.92;100.00
16120;BME280;12670;53.502;10.252;2023-02-17T10:11:43;100578.13;;;9.96;100.00
16120;BME280;12670;53.502;10.252;2023-02-17T10:14:54;100579.72;;;10.00;100.00
16120;BME280;12670;53.502;10.252;2023-02-17T10:18:02;100605.03;;;10.07;100.00
16120;BME280;12670;53.502;10.252;2023-02-17T10:21:09;100591.78;;;10.07;100.00
16120;BME280;12670;53.502;10.252;2023-02-17T10:24:15;100596.03;;;10.11;100.00
16120;BME280;12670;53.502;10.252;2023-02-17T10:27:25;100595.09;;;10.12;100.00
16120;BME280;12670;53.502;10.252;2023-02-17T10:30:34;100594.91;;;10.17;100.00
16120;BME280;12670;53.502;10.252;2023-02-17T10:33:47;100604.25;;;10.05;100.00
16120;BME280;12670;53.502;10.252;2023-02-17T10:36:56;100601.34;;;10.11;100.00
16120;BME280;12670;53.502;10.252;2023-02-17T10:40:06;100611.16;;;10.09;100.00
16120;BME280;12670;53.502;10.252;2023-02-17T10:43:14;100602.81;;;10.18;100.00
16120;BME280;12670;53.502;10.252;2023-02-17T10:46:25;100590.59;;;10.14;100.00
16120;BME280;12670;53.502;10.252;2023-02-17T10:49:31;100595.97;;;10.12;100.00
16120;BME280;12670;53.502;10.252;2023-02-17T10:52:37;100583.78;;;10.08;100.00
16120;BME280;12670;53.502;10.252;2023-02-17T10:55:49;100592.53;;;10.10;100.00
16120;BME280;12670;53.502;10.252;2023-02-17T10:58:57;100570.06;;;10.19;100.00
16120;BME280;12670;53.502;10.252;2023-02-17T11:02:15;100564.53;;;10.25;100.00
16120;BME280;12670;53.502;10.252;2023-02-17T11:05:24;100564.53;;;10.25;100.00
16120;BME280;12670;53.502;10.252;2023-02-17T11:08:30;100565.84;;;10.35;100.00
16120;BME280;12670;53.502;10.252;2023-02-17T11:11:35;100558.16;;;10.29;100.00
16120;BME280;12670;53.502;10.252;2023-02-17T11:14:43;100547.47;;;10.31;100.00
16120;BME280;12670;53.502;10.252;2023-02-17T11:17:48;100551.94;;;10.30;100.00
16120;BME280;12670;53.502;10.252;2023-02-17T11:20:59;100547.44;;;10.32;100.00
16120;BME280;12670;53.502;10.252;2023-02-17T11:24:04;100556.19;;;10.34;100.00
16120;BME280;12670;53.502;10.252;2023-02-17T11:27:08;100541.38;;;10.49;100.00
16120;BME280;12670;53.502;10.252;2023-02-17T11:30:14;100535.34;;;10.46;100.00
16120;BME280;12670;53.502;10.252;2023-02-17T11:33:23;100541.59;;;10.45;100.00
16120;BME280;12670;53.502;10.252;2023-02-17T11:36:30;100538.72;;;10.49;100.00
16120;BME280;12670;53.502;10.252;2023-02-17T11:39:36;100526.34;;;10.50;100.00
16120;BME280;12670;53.502;10.252;2023-02-17T11:42:40;100524.59;;;10.49;100.00
16120;BME280;12670;53.502;10.252;2023-02-17T11:45:48;100529.91;;;10.49;100.00
16120;BME280;12670;53.502;10.252;2023-02-17T11:52:43;100527.81;;;10.55;100.00
16120;BME280;12670;53.502;10.252;2023-02-17T11:56:02;100509.34;;;10.54;100.00
16120;BME280;12670;53.502;10.252;2023-02-17T11:59:21;100527.19;;;10.50;100.00
16120;BME280;12670;53.502;10.252;2023-02-17T12:02:38;100527.03;;;10.53;100.00
16120;BME280;12670;53.502;10.252;2023-02-17T12:05:56;100517.94;;;10.59;100.00
16120;BME280;12670;53.502;10.252;2023-02-17T12:09:09;100518.09;;;10.56;100.00
16120;BME280;12670;53.502;10.252;2023-02-17T12:12:21;100520.75;;;10.56;100.00
16120;BME280;12670;53.502;10.252;2023-02-17T12:15:41;100538.59;;;10.52;100.00
16120;BME280;12670;53.502;10.252;2023-02-17T12:18:58;100537.72;;;10.52;100.00
16120;BME280;12670;53.502;10.252;2023-02-17T12:22:13;100542.97;;;10.53;100.00
16120;BME280;12670;53.502;10.252;2023-02-17T12:25:25;100551.78;;;10.54;100.00
16120;BME280;12670;53.502;10.252;2023-02-17T12:28:44;100527.63;;;10.60;100.00
16120;BME280;12670;53.502;10.252;2023-02-17T12:32:00;100525.78;;;10.62;100.00
16120;BME280;12670;53.502;10.252;2023-02-17T12:35:15;100537.09;;;10.65;100.00
16120;BME280;12670;53.502;10.252;2023-02-17T12:38:26;100535.31;;;10.66;100.00
16120;BME280;12670;53.502;10.252;2023-02-17T12:41:32;100536.13;;;10.68;100.00
16120;BME280;12670;53.502;10.252;2023-02-17T12:44:41;100531.09;;;10.62;100.00
16120;BME280;12670;53.502;10.252;2023-02-17T12:47:49;100519.25;;;10.69;100.00
16120;BME280;12670;53.502;10.252;2023-02-17T12:51:00;100543.13;;;10.69;100.00
16120;BME280;12670;53.502;10.252;2023-02-17T12:54:11;100536.13;;;10.68;100.00
16120;BME280;12670;53.502;10.252;2023-02-17T12:57:18;100541.25;;;10.71;100.00
16120;BME280;12670;53.502;10.252;2023-02-17T13:00:28;100547.44;;;10.72;100.00
16120;BME280;12670;53.502;10.252;2023-02-17T13:03:35;100548.00;;;10.78;100.00
16120;BME280;12670;53.502;10.252;2023-02-17T13:06:41;100543.16;;;10.88;100.00
16120;BME280;12670;53.502;10.252;2023-02-17T13:09:49;100548.94;;;10.77;100.00
16120;BME280;12670;53.502;10.252;2023-02-17T13:12:58;100540.28;;;10.74;100.00
16120;BME280;12670;53.502;10.252;2023-02-17T13:16:04;100528.38;;;10.82;100.00
16120;BME280;12670;53.502;10.252;2023-02-17T13:19:07;100544.72;;;10.73;100.00
16120;BME280;12670;53.502;10.252;2023-02-17T13:22:20;100535.19;;;10.69;100.00
16120;BME280;12670;53.502;10.252;2023-02-17T13:25:31;100540.34;;;10.72;100.00
16120;BME280;12670;53.502;10.252;2023-02-17T13:28:39;100547.38;;;10.73;100.00
16120;BME280;12670;53.502;10.252;2023-02-17T13:31:45;100540.97;;;10.77;100.00
16120;BME280;12670;53.502;10.252;2023-02-17T13:34:58;100551.75;;;10.74;100.00
16120;BME280;12670;53.502;10.252;2023-02-17T13:38:02;100546.56;;;10.71;100.00
16120;BME280;12670;53.502;10.252;2023-02-17T13:41:06;100552.63;;;10.75;100.00
16120;BME280;12670;53.502;10.252;2023-02-17T13:44:23;100556.41;;;10.69;100.00
16120;BME280;12670;53.502;10.252;2023-02-17T13:47:29;100559.63;;;10.76;100.00
16120;BME280;12670;53.502;10.252;2023-02-17T13:50:34;100559.34;;;10.82;100.00
16120;BME280;12670;53.502;10.252;2023-02-17T13:53:39;100558.91;;;10.72;100.00
16120;BME280;12670;53.502;10.252;2023-02-17T13:56:49;100542.84;;;10.75;100.00
16120;BME280;12670;53.502;10.252;2023-02-17T13:59:52;100535.28;;;10.86;100.00
16120;BME280;12670;53.502;10.252;2023-02-17T14:02:56;100530.03;;;10.85;100.00
16120;BME280;12670;53.502;10.252;2023-02-17T14:06:00;100526.44;;;10.86;100.00
16120;BME280;12670;53.502;10.252;2023-02-17T14:09:11;100544.44;;;10.79;100.00
16120;BME280;12670;53.502;10.252;2023-02-17T14:12:21;100567.69;;;10.74;100.00
16120;BME280;12670;53.502;10.252;2023-02-17T14:15:27;100563.16;;;10.76;100.00
16120;BME280;12670;53.502;10.252;2023-02-17T14:18:32;100565.53;;;10.82;100.00
16120;BME280;12670;53.502;10.252;2023-02-17T14:21:37;100566.47;;;10.81;100.00
16120;BME280;12670;53.502;10.252;2023-02-17T14:24:40;100568.09;;;10.84;100.00
16120;BME280;12670;53.502;10.252;2023-02-17T14:27:45;100566.84;;;10.92;100.00
16120;BME280;12670;53.502;10.252;2023-02-17T14:30:48;100562.50;;;10.90;100.00
16120;BME280;12670;53.502;10.252;2023-02-17T14:33:56;100546.38;;;10.94;100.00
16120;BME280;12670;53.502;10.252;2023-02-17T14:37:06;100545.81;;;10.88;100.00
16120;BME280;12670;53.502;10.252;2023-02-17T14:40:14;100538.28;;;10.98;100.00
16120;BME280;12670;53.502;10.252;2023-02-17T14:43:19;100549.03;;;10.94;100.00
16120;BME280;12670;53.502;10.252;2023-02-17T14:46:22;100545.31;;;10.99;100.00
16120;BME280;12670;53.502;10.252;2023-02-17T14:49:25;100544.09;;;10.87;100.00
16120;BME280;12670;53.502;10.252;2023-02-17T14:52:27;100562.78;;;10.84;100.00
16120;BME280;12670;53.502;10.252;2023-02-17T14:55:32;100572.69;;;10.80;100.00
16120;BME280;12670;53.502;10.252;2023-02-17T14:58:37;100577.47;;;10.72;100.00
16120;BME280;12670;53.502;10.252;2023-02-17T15:01:40;100573.06;;;10.52;100.00
16120;BME280;12670;53.502;10.252;2023-02-17T15:04:43;100587.47;;;10.47;100.00
16120;BME280;12670;53.502;10.252;2023-02-17T15:07:46;100613.72;;;10.32;100.00
16120;BME280;12670;53.502;10.252;2023-02-17T15:10:49;100613.59;;;10.35;100.00
16120;BME280;12670;53.502;10.252;2023-02-17T15:13:53;100617.44;;;10.28;100.00
16120;BME280;12670;53.502;10.252;2023-02-17T15:16:56;100628.53;;;10.16;100.00
16120;BME280;12670;53.502;10.252;2023-02-17T15:19:59;100650.78;;;10.12;100.00
16120;BME280;12670;53.502;10.252;2023-02-17T15:23:01;100656.25;;;10.07;100.00
16120;BME280;12670;53.502;10.252;2023-02-17T15:26:04;100660.78;;;10.05;100.00
16120;BME280;12670;53.502;10.252;2023-02-17T15:29:15;100656.22;;;10.09;100.00
16120;BME280;12670;53.502;10.252;2023-02-17T15:32:18;100663.31;;;10.08;100.00
16120;BME280;12670;53.502;10.252;2023-02-17T15:35:23;100669.72;;;10.03;100.00
16120;BME280;12670;53.502;10.252;2023-02-17T15:38:26;100669.41;;;9.88;100.00
16120;BME280;12670;53.502;10.252;2023-02-17T15:41:29;100673.91;;;9.86;100.00
16120;BME280;12670;53.502;10.252;2023-02-17T15:44:40;100681.19;;;9.81;100.00
16120;BME280;12670;53.502;10.252;2023-02-17T15:47:43;100705.13;;;9.78;100.00
16120;BME280;12670;53.502;10.252;2023-02-17T15:50:46;100701.50;;;9.81;100.00
16120;BME280;12670;53.502;10.252;2023-02-17T15:53:49;100704.41;;;9.75;100.00
16120;BME280;12670;53.502;10.252;2023-02-17T15:56:52;100716.16;;;9.68;100.00